sensor_id;sensor_type;location;lat;lon;timestamp;pressure;altitude;pressure_sealevel;temperature
24740;BMP280;45234;48.148;17.128;2023-03-31T00:01:07;99607.44;;;11.48
24740;BMP280;45234;48.148;17.128;2023-03-31T00:03:34;99601.88;;;11.45
24740;BMP280;45234;48.148;17.128;2023-03-31T00:06:08;99606.09;;;11.39
24740;BMP280;45234;48.148;17.128;2023-03-31T00:08:37;99602.28;;;11.35
24740;BMP280;45234;48.148;17.128;2023-03-31T00:11:06;99595.50;;;11.34
24740;BMP280;45234;48.148;17.128;2023-03-31T00:13:34;99602.34;;;11.28
24740;BMP280;45234;48.148;17.128;2023-03-31T00:16:04;99607.56;;;11.22
24740;BMP280;45234;48.148;17.128;2023-03-31T00:18:32;99605.75;;;11.22
24740;BMP280;45234;48.148;17.128;2023-03-31T00:21:11;99593.63;;;11.16
24740;BMP280;45234;48.148;17.128;2023-03-31T00:23:41;99597.22;;;11.15
24740;BMP280;45234;48.148;17.128;2023-03-31T00:26:07;99591.81;;;11.10
24740;BMP280;45234;48.148;17.128;2023-03-31T00:28:34;99595.66;;;11.08
24740;BMP280;45234;48.148;17.128;2023-03-31T00:31:02;99592.66;;;11.04
24740;BMP280;45234;48.148;17.128;2023-03-31T00:33:29;99582.91;;;11.00
24740;BMP280;45234;48.148;17.128;2023-03-31T00:35:57;99580.72;;;10.97
24740;BMP280;45234;48.148;17.128;2023-03-31T00:38:32;99580.13;;;10.94
24740;BMP280;45234;48.148;17.128;2023-03-31T00:40:59;99575.94;;;10.93
24740;BMP280;45234;48.148;17.128;2023-03-31T00:43:36;99571.81;;;10.86
24740;BMP280;45234;48.148;17.128;2023-03-31T00:46:19;99565.22;;;10.83
24740;BMP280;45234;48.148;17.128;2023-03-31T00:48:55;99569.41;;;10.84
24740;BMP280;45234;48.148;17.128;2023-03-31T00:51:26;99566.19;;;10.82
24740;BMP280;45234;48.148;17.128;2023-03-31T00:53:57;99574.38;;;10.79
24740;BMP280;45234;48.148;17.128;2023-03-31T00:56:27;99579.03;;;10.57
24740;BMP280;45234;48.148;17.128;2023-03-31T00:58:57;99573.41;;;10.74
24740;BMP280;45234;48.148;17.128;2023-03-31T01:01:26;99569.03;;;10.74
24740;BMP280;45234;48.148;17.128;2023-03-31T01:03:53;99561.84;;;10.76
24740;BMP280;45234;48.148;17.128;2023-03-31T01:06:21;99550.69;;;10.76
24740;BMP280;45234;48.148;17.128;2023-03-31T01:08:50;99546.28;;;10.76
24740;BMP280;45234;48.148;17.128;2023-03-31T01:11:23;99553.06;;;10.77
24740;BMP280;45234;48.148;17.128;2023-03-31T01:13:51;99550.47;;;10.77
24740;BMP280;45234;48.148;17.128;2023-03-31T01:16:22;99551.47;;;10.76
24740;BMP280;45234;48.148;17.128;2023-03-31T01:18:49;99556.66;;;10.76
24740;BMP280;45234;48.148;17.128;2023-03-31T01:24:38;99546.72;;;10.60
24740;BMP280;45234;48.148;17.128;2023-03-31T01:30:20;99545.13;;;10.59
24740;BMP280;45234;48.148;17.128;2023-03-31T01:33:20;99542.75;;;10.51
24740;BMP280;45234;48.148;17.128;2023-03-31T01:43:45;99529.78;;;10.51
24740;BMP280;45234;48.148;17.128;2023-03-31T01:46:36;99528.81;;;10.45
24740;BMP280;45234;48.148;17.128;2023-03-31T01:57:46;99535.16;;;10.56
24740;BMP280;45234;48.148;17.128;2023-03-31T02:00:17;99524.41;;;10.59
24740;BMP280;45234;48.148;17.128;2023-03-31T02:02:58;99520.41;;;10.63
24740;BMP280;45234;48.148;17.128;2023-03-31T02:05:34;99519.81;;;10.61
24740;BMP280;45234;48.148;17.128;2023-03-31T02:08:07;99523.00;;;10.63
24740;BMP280;45234;48.148;17.128;2023-03-31T02:10:36;99526.19;;;10.65
24740;BMP280;45234;48.148;17.128;2023-03-31T02:13:06;99530.56;;;10.65
24740;BMP280;45234;48.148;17.128;2023-03-31T02:15:37;99527.59;;;10.61
24740;BMP280;45234;48.148;17.128;2023-03-31T02:18:08;99537.75;;;10.63
24740;BMP280;45234;48.148;17.128;2023-03-31T02:20:39;99529.59;;;10.59
24740;BMP280;45234;48.148;17.128;2023-03-31T02:23:15;99525.00;;;10.54
24740;BMP280;45234;48.148;17.128;2023-03-31T02:25:54;99526.59;;;10.49
24740;BMP280;45234;48.148;17.128;2023-03-31T02:28:26;99527.81;;;10.46
24740;BMP280;45234;48.148;17.128;2023-03-31T02:31:40;99523.03;;;10.37
24740;BMP280;45234;48.148;17.128;2023-03-31T02:34:02;99517.69;;;10.32
24740;BMP280;45234;48.148;17.128;2023-03-31T02:36:30;99510.91;;;10.31
24740;BMP280;45234;48.148;17.128;2023-03-31T02:39:03;99513.31;;;10.25
24740;BMP280;45234;48.148;17.128;2023-03-31T02:41:31;99517.69;;;10.25
24740;BMP280;45234;48.148;17.128;2023-03-31T02:43:58;99510.13;;;10.17
24740;BMP280;45234;48.148;17.128;2023-03-31T02:49:53;99498.97;;;10.03
24740;BMP280;45234;48.148;17.128;2023-03-31T03:06:45;99497.56;;;9.54
24740;BMP280;45234;48.148;17.128;2023-03-31T03:12:22;99497.00;;;9.72
24740;BMP280;45234;48.148;17.128;2023-03-31T03:15:05;99493.41;;;9.73
24740;BMP280;45234;48.148;17.128;2023-03-31T03:17:40;99493.81;;;9.70
24740;BMP280;45234;48.148;17.128;2023-03-31T03:20:09;99500.78;;;9.70
24740;BMP280;45234;48.148;17.128;2023-03-31T03:22:37;99497.56;;;9.68
24740;BMP280;45234;48.148;17.128;2023-03-31T03:25:05;99490.22;;;9.65
24740;BMP280;45234;48.148;17.128;2023-03-31T03:27:33;99487.81;;;9.63
24740;BMP280;45234;48.148;17.128;2023-03-31T03:30:06;99469.31;;;9.59
24740;BMP280;45234;48.148;17.128;2023-03-31T03:32:34;99468.31;;;9.60
24740;BMP280;45234;48.148;17.128;2023-03-31T03:35:02;99477.88;;;9.60
24740;BMP280;45234;48.148;17.128;2023-03-31T03:37:29;99477.06;;;9.59
24740;BMP280;45234;48.148;17.128;2023-03-31T03:39:56;99481.03;;;9.55
24740;BMP280;45234;48.148;17.128;2023-03-31T03:42:23;99480.44;;;9.53
24740;BMP280;45234;48.148;17.128;2023-03-31T03:44:50;99474.66;;;9.51
24740;BMP280;45234;48.148;17.128;2023-03-31T03:47:17;99477.25;;;9.51
24740;BMP280;45234;48.148;17.128;2023-03-31T03:49:44;99471.91;;;9.46
24740;BMP280;45234;48.148;17.128;2023-03-31T03:52:11;99475.03;;;9.42
24740;BMP280;45234;48.148;17.128;2023-03-31T03:54:38;99478.44;;;9.36
24740;BMP280;45234;48.148;17.128;2023-03-31T03:57:08;99466.28;;;9.30
24740;BMP280;45234;48.148;17.128;2023-03-31T03:59:35;99468.28;;;9.27
24740;BMP280;45234;48.148;17.128;2023-03-31T04:02:02;99459.13;;;9.25
24740;BMP280;45234;48.148;17.128;2023-03-31T04:04:29;99455.91;;;9.23
24740;BMP280;45234;48.148;17.128;2023-03-31T04:06:56;99452.75;;;9.21
24740;BMP280;45234;48.148;17.128;2023-03-31T04:09:22;99448.94;;;9.17
24740;BMP280;45234;48.148;17.128;2023-03-31T04:11:49;99447.97;;;9.18
24740;BMP280;45234;48.148;17.128;2023-03-31T04:14:16;99443.19;;;9.15
24740;BMP280;45234;48.148;17.128;2023-03-31T04:16:43;99438.81;;;9.15
24740;BMP280;45234;48.148;17.128;2023-03-31T04:19:13;99445.38;;;9.18
24740;BMP280;45234;48.148;17.128;2023-03-31T04:21:43;99440.00;;;9.19
24740;BMP280;45234;48.148;17.128;2023-03-31T04:24:11;99445.56;;;9.23
24740;BMP280;45234;48.148;17.128;2023-03-31T04:26:41;99452.75;;;9.21
24740;BMP280;45234;48.148;17.128;2023-03-31T04:29:13;99444.59;;;9.17
24740;BMP280;45234;48.148;17.128;2023-03-31T04:31:41;99438.41;;;9.18
24740;BMP280;45234;48.148;17.128;2023-03-31T04:34:09;99441.19;;;9.17
24740;BMP280;45234;48.148;17.128;2023-03-31T04:36:41;99439.97;;;9.13
24740;BMP280;45234;48.148;17.128;2023-03-31T04:39:14;99438.00;;;9.15
24740;BMP280;45234;48.148;17.128;2023-03-31T04:41:42;99448.75;;;9.18
24740;BMP280;45234;48.148;17.128;2023-03-31T04:44:11;99439.97;;;9.13
24740;BMP280;45234;48.148;17.128;2023-03-31T04:46:38;99436.41;;;9.14
24740;BMP280;45234;48.148;17.128;2023-03-31T04:49:04;99429.06;;;9.17
24740;BMP280;45234;48.148;17.128;2023-03-31T04:51:31;99429.47;;;9.21
24740;BMP280;45234;48.148;17.128;2023-03-31T04:53:58;99428.09;;;9.25
24740;BMP280;45234;48.148;17.128;2023-03-31T04:56:25;99426.28;;;9.32
24740;BMP280;45234;48.148;17.128;2023-03-31T04:58:53;99422.50;;;9.35
24740;BMP280;45234;48.148;17.128;2023-03-31T05:01:20;99415.00;;;9.40
24740;BMP280;45234;48.148;17.128;2023-03-31T05:03:47;99420.97;;;9.47
24740;BMP280;45234;48.148;17.128;2023-03-31T05:06:15;99420.34;;;9.71
24740;BMP280;45234;48.148;17.128;2023-03-31T05:08:42;99421.53;;;10.02
24740;BMP280;45234;48.148;17.128;2023-03-31T05:11:09;99411.97;;;10.02
24740;BMP280;45234;48.148;17.128;2023-03-31T05:13:37;99401.81;;;9.87
24740;BMP280;45234;48.148;17.128;2023-03-31T05:16:11;99401.84;;;9.68
24740;BMP280;45234;48.148;17.128;2023-03-31T05:18:41;99391.91;;;9.58
24740;BMP280;45234;48.148;17.128;2023-03-31T05:21:18;99388.31;;;9.52
24740;BMP280;45234;48.148;17.128;2023-03-31T05:23:47;99396.88;;;9.59
24740;BMP280;45234;48.148;17.128;2023-03-31T05:26:14;99388.50;;;9.77
24740;BMP280;45234;48.148;17.128;2023-03-31T05:28:42;99384.59;;;10.33
24740;BMP280;45234;48.148;17.128;2023-03-31T05:31:10;99385.91;;;11.18
24740;BMP280;45234;48.148;17.128;2023-03-31T05:33:41;99378.25;;;12.27
24740;BMP280;45234;48.148;17.128;2023-03-31T05:36:10;99382.00;;;13.15
24740;BMP280;45234;48.148;17.128;2023-03-31T05:38:42;99365.59;;;13.49
24740;BMP280;45234;48.148;17.128;2023-03-31T05:41:09;99371.13;;;13.64
24740;BMP280;45234;48.148;17.128;2023-03-31T05:43:37;99369.53;;;13.63
24740;BMP280;45234;48.148;17.128;2023-03-31T05:46:05;99367.19;;;13.50
24740;BMP280;45234;48.148;17.128;2023-03-31T05:48:33;99376.59;;;13.28
24740;BMP280;45234;48.148;17.128;2023-03-31T05:51:00;99369.44;;;13.12
24740;BMP280;45234;48.148;17.128;2023-03-31T05:53:28;99365.34;;;12.92
24740;BMP280;45234;48.148;17.128;2023-03-31T05:56:03;99363.78;;;12.61
24740;BMP280;45234;48.148;17.128;2023-03-31T05:58:33;99364.41;;;12.45
24740;BMP280;45234;48.148;17.128;2023-03-31T06:01:06;99370.75;;;12.19
24740;BMP280;45234;48.148;17.128;2023-03-31T06:03:35;99356.63;;;11.97
24740;BMP280;45234;48.148;17.128;2023-03-31T06:06:04;99359.94;;;11.86
24740;BMP280;45234;48.148;17.128;2023-03-31T06:08:32;99351.28;;;11.74
24740;BMP280;45234;48.148;17.128;2023-03-31T06:11:04;99348.09;;;11.72
24740;BMP280;45234;48.148;17.128;2023-03-31T06:13:36;99358.78;;;11.82
24740;BMP280;45234;48.148;17.128;2023-03-31T06:16:05;99343.56;;;11.85
24740;BMP280;45234;48.148;17.128;2023-03-31T06:18:34;99341.44;;;12.84
24740;BMP280;45234;48.148;17.128;2023-03-31T06:21:03;99347.19;;;13.27
24740;BMP280;45234;48.148;17.128;2023-03-31T06:23:30;99343.28;;;13.65
24740;BMP280;45234;48.148;17.128;2023-03-31T06:26:03;99339.84;;;13.76
24740;BMP280;45234;48.148;17.128;2023-03-31T06:28:31;99337.94;;;13.71
24740;BMP280;45234;48.148;17.128;2023-03-31T06:31:01;99335.78;;;14.08
24740;BMP280;45234;48.148;17.128;2023-03-31T06:33:29;99339.50;;;14.91
24740;BMP280;45234;48.148;17.128;2023-03-31T06:35:57;99336.56;;;15.86
24740;BMP280;45234;48.148;17.128;2023-03-31T06:38:25;99337.13;;;16.79
24740;BMP280;45234;48.148;17.128;2023-03-31T06:40:52;99335.38;;;17.57
24740;BMP280;45234;48.148;17.128;2023-03-31T06:43:19;99332.09;;;18.07
24740;BMP280;45234;48.148;17.128;2023-03-31T06:45:47;99323.16;;;18.44
24740;BMP280;45234;48.148;17.128;2023-03-31T06:48:16;99316.53;;;18.92
24740;BMP280;45234;48.148;17.128;2023-03-31T06:50:44;99325.63;;;19.15
24740;BMP280;45234;48.148;17.128;2023-03-31T06:53:12;99326.69;;;19.09
24740;BMP280;45234;48.148;17.128;2023-03-31T06:55:39;99322.03;;;18.85
24740;BMP280;45234;48.148;17.128;2023-03-31T06:58:06;99307.09;;;18.66
24740;BMP280;45234;48.148;17.128;2023-03-31T07:00:33;99312.56;;;18.84
24740;BMP280;45234;48.148;17.128;2023-03-31T07:03:00;99310.34;;;19.22
24740;BMP280;45234;48.148;17.128;2023-03-31T07:05:27;99302.47;;;19.66
24740;BMP280;45234;48.148;17.128;2023-03-31T07:07:57;99293.34;;;20.21
24740;BMP280;45234;48.148;17.128;2023-03-31T07:10:25;99297.44;;;20.61
24740;BMP280;45234;48.148;17.128;2023-03-31T07:12:52;99288.97;;;20.64
24740;BMP280;45234;48.148;17.128;2023-03-31T07:15:20;99283.09;;;20.49
24740;BMP280;45234;48.148;17.128;2023-03-31T07:17:47;99288.13;;;20.45
24740;BMP280;45234;48.148;17.128;2023-03-31T07:20:17;99283.81;;;20.30
24740;BMP280;45234;48.148;17.128;2023-03-31T07:22:46;99286.09;;;19.79
24740;BMP280;45234;48.148;17.128;2023-03-31T07:25:15;99294.44;;;19.52
24740;BMP280;45234;48.148;17.128;2023-03-31T07:27:42;99287.91;;;18.91
24740;BMP280;45234;48.148;17.128;2023-03-31T07:30:15;99277.50;;;18.45
24740;BMP280;45234;48.148;17.128;2023-03-31T07:32:45;99270.47;;;18.15
24740;BMP280;45234;48.148;17.128;2023-03-31T07:35:12;99275.97;;;17.88
24740;BMP280;45234;48.148;17.128;2023-03-31T07:37:40;99264.66;;;17.67
24740;BMP280;45234;48.148;17.128;2023-03-31T07:40:09;99261.22;;;17.52
24740;BMP280;45234;48.148;17.128;2023-03-31T07:42:36;99260.69;;;17.45
24740;BMP280;45234;48.148;17.128;2023-03-31T07:45:03;99261.72;;;17.49
24740;BMP280;45234;48.148;17.128;2023-03-31T07:47:33;99255.19;;;17.61
24740;BMP280;45234;48.148;17.128;2023-03-31T07:50:01;99255.22;;;17.92
24740;BMP280;45234;48.148;17.128;2023-03-31T07:52:29;99252.06;;;18.40
24740;BMP280;45234;48.148;17.128;2023-03-31T07:54:57;99250.63;;;18.83
24740;BMP280;45234;48.148;17.128;2023-03-31T07:57:23;99240.03;;;19.04
24740;BMP280;45234;48.148;17.128;2023-03-31T07:59:50;99237.59;;;19.22
24740;BMP280;45234;48.148;17.128;2023-03-31T08:02:17;99235.16;;;19.31
24740;BMP280;45234;48.148;17.128;2023-03-31T08:04:45;99237.19;;;19.39
24740;BMP280;45234;48.148;17.128;2023-03-31T08:07:13;99230.94;;;19.35
24740;BMP280;45234;48.148;17.128;2023-03-31T08:09:43;99228.09;;;19.26
24740;BMP280;45234;48.148;17.128;2023-03-31T08:12:11;99229.97;;;19.21
24740;BMP280;45234;48.148;17.128;2023-03-31T08:14:39;99224.75;;;19.11
24740;BMP280;45234;48.148;17.128;2023-03-31T08:17:08;99220.22;;;19.26
24740;BMP280;45234;48.148;17.128;2023-03-31T08:19:38;99230.88;;;19.40
24740;BMP280;45234;48.148;17.128;2023-03-31T08:22:05;99226.19;;;19.37
24740;BMP280;45234;48.148;17.128;2023-03-31T08:24:31;99221.56;;;19.19
24740;BMP280;45234;48.148;17.128;2023-03-31T08:26:58;99213.72;;;19.09
24740;BMP280;45234;48.148;17.128;2023-03-31T08:29:25;99214.03;;;18.97
24740;BMP280;45234;48.148;17.128;2023-03-31T08:31:53;99218.63;;;18.76
24740;BMP280;45234;48.148;17.128;2023-03-31T08:34:20;99207.16;;;18.52
24740;BMP280;45234;48.148;17.128;2023-03-31T08:36:47;99211.41;;;18.28
24740;BMP280;45234;48.148;17.128;2023-03-31T08:39:14;99200.97;;;18.07
24740;BMP280;45234;48.148;17.128;2023-03-31T08:41:59;99195.19;;;17.90
24740;BMP280;45234;48.148;17.128;2023-03-31T08:47:23;99204.88;;;17.90
24740;BMP280;45234;48.148;17.128;2023-03-31T08:49:57;99210.91;;;17.80
24740;BMP280;45234;48.148;17.128;2023-03-31T08:53:07;99199.38;;;17.61
24740;BMP280;45234;48.148;17.128;2023-03-31T08:55:57;99187.38;;;17.65
24740;BMP280;45234;48.148;17.128;2023-03-31T08:58:43;99179.47;;;17.80
24740;BMP280;45234;48.148;17.128;2023-03-31T09:01:41;99176.88;;;17.65
24740;BMP280;45234;48.148;17.128;2023-03-31T09:05:04;99172.69;;;17.69
24740;BMP280;45234;48.148;17.128;2023-03-31T09:07:43;99171.09;;;17.98
24740;BMP280;45234;48.148;17.128;2023-03-31T09:15:44;99164.19;;;18.23
24740;BMP280;45234;48.148;17.128;2023-03-31T09:18:25;99154.22;;;18.25
24740;BMP280;45234;48.148;17.128;2023-03-31T09:26:50;99134.41;;;17.68
24740;BMP280;45234;48.148;17.128;2023-03-31T09:29:29;99138.06;;;17.57
24740;BMP280;45234;48.148;17.128;2023-03-31T09:32:20;99135.72;;;17.20
24740;BMP280;45234;48.148;17.128;2023-03-31T09:35:01;99128.09;;;17.18
24740;BMP280;45234;48.148;17.128;2023-03-31T09:37:38;99136.25;;;17.32
24740;BMP280;45234;48.148;17.128;2023-03-31T09:40:06;99133.88;;;17.30
24740;BMP280;45234;48.148;17.128;2023-03-31T09:42:34;99131.78;;;17.38
24740;BMP280;45234;48.148;17.128;2023-03-31T09:45:02;99129.69;;;17.34
24740;BMP280;45234;48.148;17.128;2023-03-31T09:47:34;99124.97;;;17.21
24740;BMP280;45234;48.148;17.128;2023-03-31T09:50:07;99118.66;;;17.27
24740;BMP280;45234;48.148;17.128;2023-03-31T09:52:55;99115.25;;;17.27
24740;BMP280;45234;48.148;17.128;2023-03-31T09:55:39;99123.13;;;17.37
24740;BMP280;45234;48.148;17.128;2023-03-31T09:58:13;99117.38;;;17.25
24740;BMP280;45234;48.148;17.128;2023-03-31T10:00:42;99113.97;;;17.24
24740;BMP280;45234;48.148;17.128;2023-03-31T10:03:12;99104.53;;;17.18
24740;BMP280;45234;48.148;17.128;2023-03-31T10:05:51;99104.00;;;17.21
24740;BMP280;45234;48.148;17.128;2023-03-31T10:08:26;99100.88;;;17.34
24740;BMP280;45234;48.148;17.128;2023-03-31T10:11:11;99094.06;;;17.54
24740;BMP280;45234;48.148;17.128;2023-03-31T10:13:49;99084.63;;;17.63
24740;BMP280;45234;48.148;17.128;2023-03-31T10:16:43;99077.53;;;17.84
24740;BMP280;45234;48.148;17.128;2023-03-31T10:21:40;99071.63;;;18.27
24740;BMP280;45234;48.148;17.128;2023-03-31T10:24:10;99079.19;;;18.34
24740;BMP280;45234;48.148;17.128;2023-03-31T10:26:38;99073.41;;;18.37
24740;BMP280;45234;48.148;17.128;2023-03-31T10:29:28;99054.63;;;18.15
24740;BMP280;45234;48.148;17.128;2023-03-31T10:32:03;99048.63;;;18.04
24740;BMP280;45234;48.148;17.128;2023-03-31T10:34:31;99050.94;;;18.10
24740;BMP280;45234;48.148;17.128;2023-03-31T10:36:58;99042.00;;;18.22
24740;BMP280;45234;48.148;17.128;2023-03-31T10:39:30;99042.50;;;18.24
24740;BMP280;45234;48.148;17.128;2023-03-31T10:41:58;99033.34;;;18.21
24740;BMP280;45234;48.148;17.128;2023-03-31T10:44:37;99023.81;;;18.35
24740;BMP280;45234;48.148;17.128;2023-03-31T10:49:43;99027.59;;;18.14
24740;BMP280;45234;48.148;17.128;2023-03-31T10:52:28;99022.63;;;18.18
24740;BMP280;45234;48.148;17.128;2023-03-31T10:54:59;99027.31;;;18.26
24740;BMP280;45234;48.148;17.128;2023-03-31T10:57:50;99013.34;;;18.35
24740;BMP280;45234;48.148;17.128;2023-03-31T11:03:27;99007.47;;;18.04
24740;BMP280;45234;48.148;17.128;2023-03-31T11:06:17;99004.28;;;18.13
24740;BMP280;45234;48.148;17.128;2023-03-31T11:12:10;98999.31;;;18.55
24740;BMP280;45234;48.148;17.128;2023-03-31T11:15:00;98988.81;;;18.55
24740;BMP280;45234;48.148;17.128;2023-03-31T11:20:27;98996.09;;;18.68
24740;BMP280;45234;48.148;17.128;2023-03-31T11:26:09;98979.78;;;18.71
24740;BMP280;45234;48.148;17.128;2023-03-31T11:31:31;98977.97;;;19.01
24740;BMP280;45234;48.148;17.128;2023-03-31T11:34:21;98971.25;;;18.90
24740;BMP280;45234;48.148;17.128;2023-03-31T11:42:37;98965.94;;;19.47
24740;BMP280;45234;48.148;17.128;2023-03-31T11:45:17;98951.00;;;19.43
24740;BMP280;45234;48.148;17.128;2023-03-31T11:47:45;98942.16;;;19.57
24740;BMP280;45234;48.148;17.128;2023-03-31T11:50:26;98936.06;;;19.62
24740;BMP280;45234;48.148;17.128;2023-03-31T11:53:02;98934.00;;;19.59
24740;BMP280;45234;48.148;17.128;2023-03-31T11:55:32;98918.50;;;19.57
24740;BMP280;45234;48.148;17.128;2023-03-31T11:58:04;98927.44;;;19.56
24740;BMP280;45234;48.148;17.128;2023-03-31T12:00:41;98893.50;;;19.60
24740;BMP280;45234;48.148;17.128;2023-03-31T12:06:01;98891.66;;;19.60
24740;BMP280;45234;48.148;17.128;2023-03-31T12:08:30;98869.38;;;19.34
24740;BMP280;45234;48.148;17.128;2023-03-31T12:11:09;98833.97;;;19.88
24740;BMP280;45234;48.148;17.128;2023-03-31T12:13:46;98810.38;;;19.83
24740;BMP280;45234;48.148;17.128;2023-03-31T12:16:23;98790.91;;;19.84
24740;BMP280;45234;48.148;17.128;2023-03-31T12:21:23;98796.88;;;19.71
24740;BMP280;45234;48.148;17.128;2023-03-31T12:23:50;98792.63;;;19.75
24740;BMP280;45234;48.148;17.128;2023-03-31T12:26:38;98789.53;;;19.54
24740;BMP280;45234;48.148;17.128;2023-03-31T12:29:37;98797.31;;;19.40
24740;BMP280;45234;48.148;17.128;2023-03-31T12:32:18;98813.19;;;19.54
24740;BMP280;45234;48.148;17.128;2023-03-31T12:34:55;98803.72;;;19.72
24740;BMP280;45234;48.148;17.128;2023-03-31T12:40:18;98779.41;;;19.80
24740;BMP280;45234;48.148;17.128;2023-03-31T12:45:54;98754.91;;;19.84
24740;BMP280;45234;48.148;17.128;2023-03-31T12:51:33;98735.56;;;19.75
24740;BMP280;45234;48.148;17.128;2023-03-31T13:04:41;98734.78;;;20.07
24740;BMP280;45234;48.148;17.128;2023-03-31T13:12:29;98730.56;;;19.41
24740;BMP280;45234;48.148;17.128;2023-03-31T13:14:58;98729.78;;;19.03
24740;BMP280;45234;48.148;17.128;2023-03-31T13:17:33;98736.34;;;18.82
24740;BMP280;45234;48.148;17.128;2023-03-31T13:23:21;98697.63;;;18.26
24740;BMP280;45234;48.148;17.128;2023-03-31T13:25:53;98681.81;;;18.31
24740;BMP280;45234;48.148;17.128;2023-03-31T13:28:28;98677.81;;;18.39
24740;BMP280;45234;48.148;17.128;2023-03-31T13:31:13;98687.94;;;18.45
24740;BMP280;45234;48.148;17.128;2023-03-31T13:33:57;98674.25;;;18.72
24740;BMP280;45234;48.148;17.128;2023-03-31T13:36:56;98678.53;;;18.87
24740;BMP280;45234;48.148;17.128;2023-03-31T14:09:21;98616.84;;;17.99
24740;BMP280;45234;48.148;17.128;2023-03-31T14:11:49;98599.06;;;17.96
24740;BMP280;45234;48.148;17.128;2023-03-31T14:14:17;98599.06;;;17.96
24740;BMP280;45234;48.148;17.128;2023-03-31T14:16:45;98591.41;;;18.00
24740;BMP280;45234;48.148;17.128;2023-03-31T14:19:41;98588.31;;;17.98
24740;BMP280;45234;48.148;17.128;2023-03-31T14:22:35;98592.78;;;17.97
24740;BMP280;45234;48.148;17.128;2023-03-31T14:30:51;98589.25;;;17.83
24740;BMP280;45234;48.148;17.128;2023-03-31T14:38:37;98583.56;;;17.71
24740;BMP280;45234;48.148;17.128;2023-03-31T14:41:04;98582.53;;;17.72
24740;BMP280;45234;48.148;17.128;2023-03-31T14:43:37;98583.06;;;17.74
24740;BMP280;45234;48.148;17.128;2023-03-31T14:46:07;98588.72;;;17.81
24740;BMP280;45234;48.148;17.128;2023-03-31T14:48:44;98586.00;;;17.91
24740;BMP280;45234;48.148;17.128;2023-03-31T14:51:22;98588.75;;;18.05
24740;BMP280;45234;48.148;17.128;2023-03-31T14:54:00;98589.53;;;18.05
24740;BMP280;45234;48.148;17.128;2023-03-31T14:56:38;98590.59;;;18.04
24740;BMP280;45234;48.148;17.128;2023-03-31T14:59:07;98582.19;;;18.07
24740;BMP280;45234;48.148;17.128;2023-03-31T15:01:35;98582.44;;;18.06
24740;BMP280;45234;48.148;17.128;2023-03-31T15:04:11;98570.66;;;18.03
24740;BMP280;45234;48.148;17.128;2023-03-31T15:06:49;98568.97;;;17.94
24740;BMP280;45234;48.148;17.128;2023-03-31T15:09:21;98559.16;;;17.99
24740;BMP280;45234;48.148;17.128;2023-03-31T15:12:12;98566.56;;;17.97
24740;BMP280;45234;48.148;17.128;2023-03-31T15:14:45;98563.41;;;17.95
24740;BMP280;45234;48.148;17.128;2023-03-31T15:17:24;98573.91;;;17.95
24740;BMP280;45234;48.148;17.128;2023-03-31T15:20:00;98576.84;;;17.94
24740;BMP280;45234;48.148;17.128;2023-03-31T15:22:30;98584.41;;;17.95
24740;BMP280;45234;48.148;17.128;2023-03-31T15:24:57;98587.00;;;17.95
24740;BMP280;45234;48.148;17.128;2023-03-31T15:27:34;98579.19;;;17.90
24740;BMP280;45234;48.148;17.128;2023-03-31T15:30:12;98582.16;;;17.84
24740;BMP280;45234;48.148;17.128;2023-03-31T15:32:41;98577.72;;;17.84
24740;BMP280;45234;48.148;17.128;2023-03-31T15:35:23;98590.13;;;17.73
24740;BMP280;45234;48.148;17.128;2023-03-31T15:37:53;98588.28;;;17.74
24740;BMP280;45234;48.148;17.128;2023-03-31T15:40:35;98580.00;;;17.62
24740;BMP280;45234;48.148;17.128;2023-03-31T15:43:30;98576.09;;;17.59
24740;BMP280;45234;48.148;17.128;2023-03-31T15:46:01;98577.16;;;17.58
24740;BMP280;45234;48.148;17.128;2023-03-31T15:48:33;98584.44;;;17.61
24740;BMP280;45234;48.148;17.128;2023-03-31T15:51:05;98591.78;;;17.30
24740;BMP280;45234;48.148;17.128;2023-03-31T15:53:37;98609.94;;;17.51
24740;BMP280;45234;48.148;17.128;2023-03-31T15:56:30;98628.28;;;17.51
24740;BMP280;45234;48.148;17.128;2023-03-31T15:59:03;98614.75;;;17.44
24740;BMP280;45234;48.148;17.128;2023-03-31T16:01:32;98622.63;;;17.39
24740;BMP280;45234;48.148;17.128;2023-03-31T16:04:04;98625.81;;;17.30
24740;BMP280;45234;48.148;17.128;2023-03-31T16:06:39;98643.16;;;17.21
24740;BMP280;45234;48.148;17.128;2023-03-31T16:09:10;98619.13;;;17.14
24740;BMP280;45234;48.148;17.128;2023-03-31T16:12:02;98628.16;;;16.98
24740;BMP280;45234;48.148;17.128;2023-03-31T16:14:37;98633.44;;;16.88
24740;BMP280;45234;48.148;17.128;2023-03-31T16:17:08;98629.53;;;16.80
24740;BMP280;45234;48.148;17.128;2023-03-31T16:19:40;98640.81;;;16.71
24740;BMP280;45234;48.148;17.128;2023-03-31T16:22:18;98660.19;;;16.65
24740;BMP280;45234;48.148;17.128;2023-03-31T16:24:47;98657.66;;;16.39
24740;BMP280;45234;48.148;17.128;2023-03-31T16:27:14;98650.63;;;16.19
24740;BMP280;45234;48.148;17.128;2023-03-31T16:29:41;98657.19;;;16.02
24740;BMP280;45234;48.148;17.128;2023-03-31T16:32:17;98655.13;;;15.83
24740;BMP280;45234;48.148;17.128;2023-03-31T16:34:59;98655.63;;;15.70
24740;BMP280;45234;48.148;17.128;2023-03-31T16:37:26;98640.50;;;15.62
24740;BMP280;45234;48.148;17.128;2023-03-31T16:39:53;98616.47;;;15.45
24740;BMP280;45234;48.148;17.128;2023-03-31T16:42:21;98637.31;;;15.35
24740;BMP280;45234;48.148;17.128;2023-03-31T16:44:48;98623.72;;;15.28
24740;BMP280;45234;48.148;17.128;2023-03-31T16:47:35;98622.16;;;15.27
24740;BMP280;45234;48.148;17.128;2023-03-31T16:50:03;98605.72;;;15.21
24740;BMP280;45234;48.148;17.128;2023-03-31T16:52:35;98611.19;;;15.14
24740;BMP280;45234;48.148;17.128;2023-03-31T16:55:02;98586.38;;;15.12
24740;BMP280;45234;48.148;17.128;2023-03-31T16:57:29;98600.22;;;15.07
24740;BMP280;45234;48.148;17.128;2023-03-31T16:59:57;98586.34;;;15.07
24740;BMP280;45234;48.148;17.128;2023-03-31T17:02:25;98565.75;;;15.05
24740;BMP280;45234;48.148;17.128;2023-03-31T17:04:52;98579.84;;;15.04
24740;BMP280;45234;48.148;17.128;2023-03-31T17:07:25;98594.47;;;15.05